createdAt,value
2017-12-17T00:00:04.367Z,2.90
2017-12-17T00:02:31.930Z,2.90
2017-12-17T00:04:59.499Z,2.80
2017-12-17T00:07:27.185Z,2.80
2017-12-17T00:09:54.804Z,2.90
2017-12-17T00:12:22.362Z,2.90
2017-12-17T00:14:49.969Z,2.80
2017-12-17T00:17:18.321Z,2.80
2017-12-17T00:19:45.940Z,2.80
2017-12-17T00:22:14.198Z,2.80
2017-12-17T00:24:41.742Z,2.80
2017-12-17T00:27:10.069Z,2.80
2017-12-17T00:29:37.648Z,2.80
2017-12-17T00:32:05.328Z,2.80
2017-12-17T00:34:32.875Z,2.80
2017-12-17T00:37:00.482Z,2.90
2017-12-17T00:39:28.095Z,2.90
2017-12-17T00:41:55.673Z,2.90
2017-12-17T00:44:23.234Z,2.90
2017-12-17T00:46:50.939Z,2.90
2017-12-17T00:49:18.504Z,2.90
2017-12-17T00:51:46.065Z,2.90
2017-12-17T00:54:13.650Z,3.00
2017-12-17T00:56:41.193Z,3.00
2017-12-17T00:59:08.771Z,3.00
2017-12-17T01:01:36.330Z,3.00
2017-12-17T01:04:03.919Z,3.00
2017-12-17T01:06:31.517Z,3.00
2017-12-17T01:08:59.097Z,3.10
2017-12-17T01:11:26.646Z,3.10
2017-12-17T01:13:54.222Z,3.10
2017-12-17T01:16:21.842Z,3.10
2017-12-17T01:18:50.239Z,3.10
2017-12-17T01:21:17.817Z,3.10
2017-12-17T01:23:45.435Z,3.10
2017-12-17T01:26:13.873Z,3.10
2017-12-17T01:28:41.426Z,3.10
2017-12-17T01:31:09.010Z,3.10
2017-12-17T01:33:36.560Z,3.20
2017-12-17T01:36:04.218Z,3.20
2017-12-17T01:38:31.879Z,3.20
2017-12-17T01:40:59.479Z,3.10
2017-12-17T01:43:27.041Z,3.20
2017-12-17T01:45:54.623Z,3.20
2017-12-17T01:48:22.985Z,3.20
2017-12-17T01:50:51.909Z,3.20
2017-12-17T01:53:19.466Z,3.20
2017-12-17T01:55:47.021Z,3.10
2017-12-17T01:58:14.685Z,3.10
2017-12-17T02:00:42.639Z,3.10
2017-12-17T02:03:10.993Z,3.10
2017-12-17T02:05:38.552Z,3.10
2017-12-17T02:08:06.298Z,3.10
2017-12-17T02:10:33.843Z,3.10
2017-12-17T02:13:01.433Z,3.10
2017-12-17T02:15:29.005Z,3.10
2017-12-17T02:17:56.545Z,3.10
2017-12-17T02:20:24.111Z,3.10
2017-12-17T02:22:51.686Z,3.00
2017-12-17T02:25:19.502Z,2.90
2017-12-17T02:27:47.037Z,2.90
2017-12-17T02:30:15.401Z,2.90
2017-12-17T02:32:42.935Z,2.90
2017-12-17T02:35:10.480Z,2.90
2017-12-17T02:37:38.033Z,2.90
2017-12-17T02:40:05.605Z,3.00
2017-12-17T02:42:33.151Z,3.00
2017-12-17T02:45:00.747Z,3.00
2017-12-17T02:47:28.341Z,3.00
2017-12-17T02:49:56.689Z,3.10
2017-12-17T02:52:24.242Z,3.10
2017-12-17T02:54:51.801Z,3.10
2017-12-17T02:57:19.373Z,3.10
2017-12-17T02:59:46.953Z,3.10
2017-12-17T03:02:15.256Z,3.10
2017-12-17T03:04:42.804Z,3.10
2017-12-17T03:07:10.462Z,3.20
2017-12-17T03:09:38.791Z,3.20
2017-12-17T03:12:06.366Z,3.10
2017-12-17T03:14:33.917Z,3.10
2017-12-17T03:17:01.503Z,3.10
2017-12-17T03:19:29.062Z,3.10
2017-12-17T03:21:56.608Z,3.10
2017-12-17T03:24:24.242Z,3.10
2017-12-17T03:26:52.559Z,3.10
2017-12-17T03:29:20.107Z,3.10
2017-12-17T03:31:47.695Z,3.10
2017-12-17T03:34:16.014Z,3.10
2017-12-17T03:36:43.562Z,3.10
2017-12-17T03:39:11.134Z,3.10
2017-12-17T03:41:38.682Z,3.10
2017-12-17T03:44:06.236Z,3.20
2017-12-17T03:46:33.781Z,3.10
2017-12-17T03:49:02.118Z,3.00
2017-12-17T03:51:29.761Z,3.00
2017-12-17T03:53:57.335Z,3.00
2017-12-17T03:56:24.895Z,3.10
2017-12-17T03:58:52.545Z,3.00
2017-12-17T04:01:20.890Z,3.00
2017-12-17T04:03:48.445Z,3.00
2017-12-17T04:06:16.757Z,3.10
2017-12-17T04:08:44.297Z,3.00
2017-12-17T04:11:12.661Z,3.10
2017-12-17T04:13:41.000Z,3.10
2017-12-17T04:16:08.585Z,3.10
2017-12-17T04:18:36.146Z,3.10
2017-12-17T04:21:03.738Z,3.10
2017-12-17T04:23:31.291Z,3.10
2017-12-17T04:25:59.633Z,3.10
2017-12-17T04:28:27.192Z,3.10
2017-12-17T04:30:54.801Z,3.10
2017-12-17T04:33:23.104Z,3.10
2017-12-17T04:35:50.675Z,3.10
2017-12-17T04:38:18.245Z,3.10
2017-12-17T04:40:45.790Z,3.10
2017-12-17T04:43:13.365Z,3.10
2017-12-17T04:45:40.905Z,3.10
2017-12-17T04:48:08.477Z,3.00
2017-12-17T04:50:36.017Z,3.10
2017-12-17T04:53:03.586Z,3.10
2017-12-17T04:55:31.134Z,3.10
2017-12-17T04:57:58.741Z,3.10
2017-12-17T05:00:26.320Z,3.00
2017-12-17T05:02:54.688Z,3.10
2017-12-17T05:05:22.253Z,3.00
2017-12-17T05:07:50.605Z,3.10
2017-12-17T05:10:18.182Z,3.10
2017-12-17T05:12:45.767Z,3.10
2017-12-17T05:15:14.107Z,3.10
2017-12-17T05:17:41.687Z,3.10
2017-12-17T05:20:09.256Z,3.10
2017-12-17T05:22:37.571Z,3.20
2017-12-17T05:25:05.134Z,3.10
2017-12-17T05:27:32.702Z,3.20
2017-12-17T05:30:00.377Z,3.10
2017-12-17T05:32:27.915Z,3.20
2017-12-17T05:34:55.492Z,3.20
2017-12-17T05:37:23.041Z,3.20
2017-12-17T05:39:51.391Z,3.20
2017-12-17T05:42:19.726Z,3.20
2017-12-17T05:44:47.270Z,3.20
2017-12-17T05:47:14.854Z,3.30
2017-12-17T05:49:42.460Z,3.20
2017-12-17T05:52:10.808Z,3.20
2017-12-17T05:54:38.369Z,3.20
2017-12-17T05:57:05.940Z,3.20
2017-12-17T05:59:34.382Z,3.20
2017-12-17T06:02:01.930Z,3.20
2017-12-17T06:04:29.506Z,3.20
2017-12-17T06:06:57.207Z,3.20
2017-12-17T06:09:25.631Z,3.20
2017-12-17T06:11:53.173Z,3.20
2017-12-17T06:14:20.754Z,3.20
2017-12-17T06:16:48.415Z,3.20
2017-12-17T06:19:15.989Z,3.20
2017-12-17T06:21:43.553Z,3.20
2017-12-17T06:24:11.109Z,3.10
2017-12-17T06:26:38.664Z,3.10
2017-12-17T06:29:06.247Z,3.10
2017-12-17T06:31:33.801Z,3.10
2017-12-17T06:34:01.358Z,3.10
2017-12-17T06:36:28.939Z,3.00
2017-12-17T06:38:56.519Z,3.10
2017-12-17T06:41:24.059Z,3.00
2017-12-17T06:43:51.632Z,3.00
2017-12-17T06:46:19.283Z,3.00
2017-12-17T06:48:46.864Z,3.00
2017-12-17T06:51:15.192Z,3.00
2017-12-17T06:53:42.814Z,3.00
2017-12-17T06:56:11.147Z,3.00
2017-12-17T06:58:38.720Z,3.00
2017-12-17T07:01:06.268Z,3.00
2017-12-17T07:03:33.854Z,3.00
2017-12-17T07:06:01.416Z,3.00
2017-12-17T07:08:28.987Z,3.00
2017-12-17T07:10:56.560Z,3.00
2017-12-17T07:13:24.863Z,2.90
2017-12-17T07:15:52.474Z,2.90
2017-12-17T07:18:20.050Z,2.90
2017-12-17T07:20:48.374Z,3.00
2017-12-17T07:23:15.938Z,3.00
2017-12-17T07:25:43.847Z,2.90
2017-12-17T07:28:11.377Z,2.90
2017-12-17T07:30:38.953Z,2.90
2017-12-17T07:33:06.522Z,2.90
2017-12-17T07:35:34.182Z,2.80
2017-12-17T07:38:01.739Z,2.90
2017-12-17T07:40:29.282Z,2.90
2017-12-17T07:42:56.851Z,2.90
2017-12-17T07:45:24.558Z,2.90
2017-12-17T07:47:52.898Z,2.90
2017-12-17T07:50:20.456Z,2.90
2017-12-17T07:52:48.047Z,2.90
2017-12-17T07:55:16.430Z,2.90
2017-12-17T07:57:44.761Z,2.90
2017-12-17T08:00:12.335Z,2.90
2017-12-17T08:02:39.897Z,3.00
2017-12-17T08:05:07.506Z,3.00
2017-12-17T08:07:35.837Z,3.00
2017-12-17T08:10:03.428Z,2.90
2017-12-17T08:12:31.771Z,3.00
2017-12-17T08:14:59.362Z,2.90
2017-12-17T08:17:27.762Z,3.00
2017-12-17T08:19:56.100Z,3.00
2017-12-17T08:22:23.674Z,3.00
2017-12-17T08:24:51.363Z,3.00
2017-12-17T08:27:19.713Z,3.00
2017-12-17T08:29:47.269Z,3.00
2017-12-17T08:32:14.856Z,3.00
2017-12-17T08:34:43.177Z,3.00
2017-12-17T08:37:10.759Z,3.00
2017-12-17T08:39:38.351Z,3.00
2017-12-17T08:42:06.711Z,3.10
2017-12-17T08:44:34.279Z,3.10
2017-12-17T08:47:01.902Z,3.10
2017-12-17T08:49:29.473Z,3.20
2017-12-17T08:51:57.066Z,3.20
2017-12-17T08:54:25.398Z,3.10
2017-12-17T08:56:52.954Z,3.20
2017-12-17T08:59:20.530Z,3.20
2017-12-17T09:01:48.113Z,3.20
2017-12-17T09:04:15.681Z,3.20
2017-12-17T09:06:43.237Z,3.20
2017-12-17T09:09:10.809Z,3.20
2017-12-17T09:11:39.152Z,3.30
2017-12-17T09:14:06.751Z,3.30
2017-12-17T09:16:34.313Z,3.30
2017-12-17T09:19:01.896Z,3.30
2017-12-17T09:21:29.464Z,3.40
2017-12-17T09:23:57.064Z,3.40
2017-12-17T09:26:24.622Z,3.30
2017-12-17T09:28:52.313Z,3.30
2017-12-17T09:31:19.869Z,3.20
2017-12-17T09:33:47.453Z,3.20
2017-12-17T09:36:15.772Z,3.20
2017-12-17T09:38:43.357Z,3.20
2017-12-17T09:41:11.186Z,3.20
2017-12-17T09:43:38.767Z,3.20
2017-12-17T09:46:06.378Z,3.20
2017-12-17T09:48:34.694Z,3.20
2017-12-17T09:51:02.292Z,3.20
2017-12-17T09:53:29.854Z,3.20
2017-12-17T09:55:57.425Z,3.20
2017-12-17T09:58:25.004Z,3.20
2017-12-17T10:00:53.309Z,3.30
2017-12-17T10:03:20.893Z,3.30
2017-12-17T10:05:48.469Z,3.30
2017-12-17T10:08:16.070Z,3.30
2017-12-17T10:10:44.406Z,3.30
2017-12-17T10:13:11.985Z,3.30
2017-12-17T10:15:39.532Z,3.30
2017-12-17T10:18:07.194Z,3.30
2017-12-17T10:20:34.778Z,3.40
2017-12-17T10:23:03.177Z,3.40
2017-12-17T10:25:31.498Z,3.40
2017-12-17T10:27:59.123Z,3.40
2017-12-17T10:30:26.739Z,3.50
2017-12-17T10:32:54.295Z,3.50
2017-12-17T10:35:21.912Z,3.50
2017-12-17T10:37:49.482Z,3.50
2017-12-17T10:40:17.073Z,3.50
2017-12-17T10:42:44.676Z,3.60
2017-12-17T10:45:13.015Z,4.00
2017-12-17T10:47:40.602Z,4.00
2017-12-17T10:50:08.174Z,4.10
2017-12-17T10:52:36.602Z,4.30
2017-12-17T10:55:04.211Z,4.30
2017-12-17T10:57:31.841Z,4.40
2017-12-17T10:59:59.402Z,4.40
2017-12-17T11:02:26.981Z,4.30
2017-12-17T11:04:54.534Z,4.30
2017-12-17T11:07:22.133Z,4.20
2017-12-17T11:09:50.504Z,4.10
2017-12-17T11:12:25.737Z,4.20
2017-12-17T11:14:53.277Z,4.20
2017-12-17T11:17:24.139Z,4.20
2017-12-17T11:19:52.555Z,4.50
2017-12-17T11:22:20.111Z,4.50
2017-12-17T11:24:47.962Z,4.60
2017-12-17T11:27:15.525Z,4.70
2017-12-17T11:29:43.093Z,4.70
2017-12-17T11:32:10.694Z,4.70
2017-12-17T11:34:39.069Z,4.80
2017-12-17T11:37:06.638Z,4.70
2017-12-17T11:39:34.212Z,4.80
2017-12-17T11:42:02.633Z,4.80
2017-12-17T11:44:30.245Z,4.80
2017-12-17T11:46:57.882Z,4.70
2017-12-17T11:49:25.483Z,4.70
2017-12-17T11:51:53.093Z,4.90
2017-12-17T11:54:20.677Z,5.00
2017-12-17T11:56:48.274Z,5.10
2017-12-17T11:59:16.614Z,5.50
2017-12-17T12:01:44.268Z,5.50
2017-12-17T12:04:11.840Z,5.40
2017-12-17T12:06:39.423Z,5.30
2017-12-17T12:09:06.975Z,5.20
2017-12-17T12:11:34.605Z,5.10
2017-12-17T12:14:02.182Z,4.90
2017-12-17T12:16:29.778Z,4.80
2017-12-17T12:18:57.348Z,4.70
2017-12-17T12:21:25.823Z,4.50
2017-12-17T12:23:54.192Z,4.50
2017-12-17T12:26:21.779Z,4.50
2017-12-17T12:28:50.132Z,4.50
2017-12-17T12:31:17.797Z,4.50
2017-12-17T12:33:45.378Z,4.50
2017-12-17T12:36:13.704Z,4.30
2017-12-17T12:38:41.283Z,4.30
2017-12-17T12:41:09.012Z,4.20
2017-12-17T12:43:39.364Z,4.50
2017-12-17T12:46:06.923Z,4.50
2017-12-17T12:48:34.516Z,4.60
2017-12-17T12:51:02.108Z,4.60
2017-12-17T12:53:29.709Z,4.40
2017-12-17T12:55:57.289Z,4.30
2017-12-17T12:58:24.876Z,4.20
2017-12-17T13:00:53.313Z,4.20
2017-12-17T13:03:20.857Z,4.20
2017-12-17T13:05:48.436Z,4.30
2017-12-17T13:08:16.012Z,4.20
2017-12-17T13:10:43.557Z,4.20
2017-12-17T13:13:11.128Z,4.10
2017-12-17T13:15:38.741Z,4.10
2017-12-17T13:18:06.318Z,4.10
2017-12-17T13:20:33.890Z,3.90
2017-12-17T13:23:01.466Z,3.90
2017-12-17T13:25:29.038Z,3.90
2017-12-17T13:27:56.621Z,3.90
2017-12-17T13:30:25.241Z,3.90
2017-12-17T13:32:52.799Z,3.90
2017-12-17T13:35:20.350Z,3.90
2017-12-17T13:37:47.942Z,3.90
2017-12-17T13:40:15.533Z,3.90
2017-12-17T13:42:43.132Z,3.80
2017-12-17T13:45:10.705Z,3.80
2017-12-17T13:47:38.288Z,3.70
2017-12-17T13:50:05.907Z,3.70
2017-12-17T13:52:33.465Z,3.70
2017-12-17T13:55:01.708Z,3.70
2017-12-17T13:57:29.254Z,3.70
2017-12-17T13:59:56.839Z,3.80
2017-12-17T14:02:24.381Z,3.80
2017-12-17T14:04:52.128Z,3.70
2017-12-17T14:07:19.671Z,3.70
2017-12-17T14:09:47.265Z,3.70
2017-12-17T14:12:14.865Z,3.60
2017-12-17T14:14:43.197Z,3.60
2017-12-17T14:17:10.785Z,3.50
2017-12-17T14:19:39.237Z,3.50
2017-12-17T14:22:06.830Z,3.50
2017-12-17T14:24:34.397Z,3.50
2017-12-17T14:27:02.006Z,3.60
2017-12-17T14:29:29.558Z,3.50
2017-12-17T14:31:57.138Z,3.60
2017-12-17T14:34:24.704Z,3.50
2017-12-17T14:36:52.295Z,3.50
2017-12-17T14:39:19.831Z,3.40
2017-12-17T14:41:47.399Z,3.30
2017-12-17T14:44:15.049Z,3.30
2017-12-17T14:46:42.610Z,3.30
2017-12-17T14:49:10.201Z,3.30
2017-12-17T14:51:37.757Z,3.30
2017-12-17T14:54:06.078Z,3.30
2017-12-17T14:56:33.669Z,3.30
2017-12-17T14:59:01.255Z,3.40
2017-12-17T15:01:28.916Z,3.40
2017-12-17T15:03:56.482Z,3.30
2017-12-17T15:06:24.842Z,3.20
2017-12-17T15:08:52.400Z,3.10
2017-12-17T15:11:20.031Z,3.10
2017-12-17T15:13:47.720Z,3.00
2017-12-17T15:16:15.283Z,3.00
2017-12-17T15:18:42.853Z,3.00
2017-12-17T15:21:10.418Z,2.90
2017-12-17T15:23:38.141Z,2.90
2017-12-17T15:26:05.721Z,2.90
2017-12-17T15:28:33.283Z,2.90
2017-12-17T15:31:00.881Z,2.90
2017-12-17T15:33:29.244Z,2.90
2017-12-17T15:35:56.837Z,2.90
2017-12-17T15:38:25.172Z,2.90
2017-12-17T15:40:52.757Z,2.90
2017-12-17T15:43:21.193Z,3.00
2017-12-17T15:45:49.521Z,3.00
2017-12-17T15:48:17.858Z,3.00
2017-12-17T15:50:45.485Z,3.00
2017-12-17T15:53:13.125Z,3.00
2017-12-17T15:55:41.489Z,3.10
2017-12-17T15:58:09.073Z,3.10
2017-12-17T16:00:37.433Z,3.10
2017-12-17T16:03:05.130Z,3.10
2017-12-17T16:05:32.713Z,3.10
2017-12-17T16:08:00.286Z,3.20
2017-12-17T16:10:27.860Z,3.20
2017-12-17T16:12:55.462Z,3.20
2017-12-17T16:15:23.786Z,3.20
2017-12-17T16:17:51.331Z,3.10
2017-12-17T16:20:18.933Z,3.10
2017-12-17T16:22:46.512Z,3.10
2017-12-17T16:25:14.862Z,3.10
2017-12-17T16:27:42.420Z,3.10
2017-12-17T16:30:10.010Z,3.00
2017-12-17T16:32:38.362Z,2.90
2017-12-17T16:35:05.941Z,2.90
2017-12-17T16:37:33.511Z,2.90
2017-12-17T16:40:01.962Z,2.90
2017-12-17T16:42:29.574Z,2.90
2017-12-17T16:44:57.149Z,2.90
2017-12-17T16:47:24.757Z,2.90
2017-12-17T16:49:52.406Z,2.90
2017-12-17T16:52:20.702Z,2.90
2017-12-17T16:54:48.282Z,2.90
2017-12-17T16:57:18.926Z,3.00
2017-12-17T16:59:47.292Z,3.00
2017-12-17T17:02:14.886Z,3.00
2017-12-17T17:04:42.456Z,3.00
2017-12-17T17:07:10.051Z,3.00
2017-12-17T17:09:37.682Z,3.00
2017-12-17T17:12:05.280Z,3.00
2017-12-17T17:14:32.904Z,3.10
2017-12-17T17:17:00.477Z,3.10
2017-12-17T17:19:28.078Z,3.10
2017-12-17T17:21:56.429Z,3.10
2017-12-17T17:24:24.018Z,3.10
2017-12-17T17:26:51.585Z,3.10
2017-12-17T17:29:19.949Z,3.00
2017-12-17T17:31:47.506Z,3.00
2017-12-17T17:34:15.124Z,3.00
2017-12-17T17:36:42.732Z,3.00
2017-12-17T17:39:10.357Z,3.00
2017-12-17T17:41:37.928Z,3.00
2017-12-17T17:44:05.538Z,3.00
2017-12-17T17:46:33.902Z,3.10
2017-12-17T17:49:02.245Z,3.20
2017-12-17T17:51:29.911Z,3.10
2017-12-17T17:53:57.629Z,3.20
2017-12-17T17:56:26.006Z,3.20
2017-12-17T17:58:54.375Z,3.20
2017-12-17T18:01:22.693Z,3.20
2017-12-17T18:03:50.298Z,3.30
2017-12-17T18:06:17.879Z,3.30
2017-12-17T18:08:46.246Z,3.30
2017-12-17T18:11:13.825Z,3.30
2017-12-17T18:13:42.282Z,3.20
2017-12-17T18:16:09.860Z,3.20
2017-12-17T18:18:38.223Z,3.20
2017-12-17T18:21:05.854Z,3.20
2017-12-17T18:23:33.583Z,3.20
2017-12-17T18:26:01.142Z,3.10
2017-12-17T18:28:34.073Z,3.00
2017-12-17T18:31:01.686Z,3.00
2017-12-17T18:33:29.434Z,3.00
2017-12-17T18:35:57.783Z,3.00
2017-12-17T18:38:25.356Z,3.00
2017-12-17T18:40:52.975Z,3.00
2017-12-17T18:43:20.635Z,3.00
2017-12-17T18:45:52.086Z,3.00
2017-12-17T18:48:19.716Z,3.10
2017-12-17T18:50:48.056Z,3.20
2017-12-17T18:53:15.650Z,3.20
2017-12-17T18:55:44.039Z,3.20
2017-12-17T18:58:12.394Z,3.30
2017-12-17T19:00:40.022Z,3.30
2017-12-17T19:03:07.701Z,3.30
2017-12-17T19:05:35.347Z,3.30
2017-12-17T19:08:02.935Z,3.30
2017-12-17T19:10:30.728Z,3.30
2017-12-17T19:12:59.277Z,3.20
2017-12-17T19:15:27.038Z,3.20
2017-12-17T19:17:54.761Z,3.20
2017-12-17T19:20:22.464Z,3.20
2017-12-17T19:22:50.058Z,3.10
2017-12-17T19:25:17.732Z,3.10
2017-12-17T19:27:45.411Z,3.10
2017-12-17T19:30:13.889Z,3.10
2017-12-17T19:32:42.470Z,3.10
2017-12-17T19:35:10.255Z,3.10
2017-12-17T19:37:37.912Z,3.10
2017-12-17T19:40:05.513Z,3.10
2017-12-17T19:42:33.338Z,3.10
2017-12-17T19:45:00.938Z,3.10
2017-12-17T19:47:28.588Z,3.10
2017-12-17T19:49:56.288Z,3.10
2017-12-17T19:52:24.120Z,3.10
2017-12-17T19:54:52.596Z,3.20
2017-12-17T19:57:20.351Z,3.20
2017-12-17T19:59:48.089Z,3.20
2017-12-17T20:02:15.711Z,3.20
2017-12-17T20:04:43.305Z,3.20
2017-12-17T20:07:11.772Z,3.20
2017-12-17T20:09:39.402Z,3.20
2017-12-17T20:12:07.021Z,3.20
2017-12-17T20:14:35.641Z,3.20
2017-12-17T20:17:03.377Z,3.20
2017-12-17T20:19:31.281Z,3.20
2017-12-17T20:21:59.022Z,3.20
2017-12-17T20:24:26.778Z,3.20
2017-12-17T20:26:54.855Z,3.30
2017-12-17T20:29:22.243Z,3.30
2017-12-17T20:31:49.850Z,3.30
2017-12-17T20:34:18.200Z,3.40
2017-12-17T20:36:46.067Z,3.40
2017-12-17T20:39:14.473Z,3.40
2017-12-17T20:41:42.876Z,3.40
2017-12-17T20:44:10.698Z,3.40
2017-12-17T20:46:38.403Z,3.40
2017-12-17T20:49:06.153Z,3.40
2017-12-17T20:51:34.509Z,3.40
2017-12-17T20:54:02.093Z,3.40
2017-12-17T20:56:30.476Z,3.40
2017-12-17T20:58:58.849Z,3.40
2017-12-17T21:01:27.222Z,3.40
2017-12-17T21:03:54.821Z,3.40
2017-12-17T21:06:22.521Z,3.40
2017-12-17T21:08:50.132Z,3.40
2017-12-17T21:11:18.491Z,3.50
2017-12-17T21:13:46.110Z,3.50
2017-12-17T21:16:13.731Z,3.50
2017-12-17T21:18:42.073Z,3.50
2017-12-17T21:21:09.719Z,3.40
2017-12-17T21:23:37.290Z,3.40
2017-12-17T21:26:05.134Z,3.40
2017-12-17T21:28:32.666Z,3.40
2017-12-17T21:31:00.388Z,3.40
2017-12-17T21:33:27.966Z,3.40
2017-12-17T21:35:55.570Z,3.40
2017-12-17T21:38:23.173Z,3.40
2017-12-17T21:40:50.798Z,3.40
2017-12-17T21:43:18.387Z,3.40
2017-12-17T21:45:45.978Z,3.40
2017-12-17T21:48:14.345Z,3.30
2017-12-17T21:50:42.002Z,3.30
2017-12-17T21:53:09.599Z,3.40
2017-12-17T21:55:37.162Z,3.40
2017-12-17T21:58:04.768Z,3.40
2017-12-17T22:00:32.636Z,3.40
2017-12-17T22:03:00.206Z,3.40
2017-12-17T22:05:27.787Z,3.30
2017-12-17T22:07:55.342Z,3.30
2017-12-17T22:10:22.934Z,3.30
2017-12-17T22:12:50.588Z,3.30
2017-12-17T22:15:18.956Z,3.30
2017-12-17T22:17:46.502Z,3.30
2017-12-17T22:20:14.087Z,3.30
2017-12-17T22:22:42.429Z,3.30
2017-12-17T22:25:10.022Z,3.30
2017-12-17T22:27:38.342Z,3.40
2017-12-17T22:30:05.921Z,3.30
2017-12-17T22:32:33.481Z,3.40
2017-12-17T22:35:01.066Z,3.40
2017-12-17T22:37:29.613Z,3.40
2017-12-17T22:39:57.237Z,3.40
2017-12-17T22:42:24.829Z,3.40
2017-12-17T22:44:52.483Z,3.40
2017-12-17T22:47:20.070Z,3.40
2017-12-17T22:49:47.646Z,3.40
2017-12-17T22:52:15.237Z,3.40
2017-12-17T22:54:44.013Z,3.40
2017-12-17T22:57:11.929Z,3.40
2017-12-17T22:59:39.521Z,3.40
2017-12-17T23:02:07.110Z,3.40
2017-12-17T23:04:35.525Z,3.40
2017-12-17T23:07:03.090Z,3.40
2017-12-17T23:09:30.660Z,3.40
2017-12-17T23:11:58.277Z,3.40
2017-12-17T23:14:25.858Z,3.40
2017-12-17T23:16:53.450Z,3.40
2017-12-17T23:19:20.999Z,3.40
2017-12-17T23:21:48.565Z,3.40
2017-12-17T23:24:16.914Z,3.40
2017-12-17T23:26:44.469Z,3.40
2017-12-17T23:29:12.068Z,3.40
2017-12-17T23:31:39.633Z,3.40
2017-12-17T23:34:07.238Z,3.40
2017-12-17T23:36:35.616Z,3.30
2017-12-17T23:39:03.139Z,3.30
2017-12-17T23:41:30.987Z,3.20
2017-12-17T23:43:58.586Z,3.10
2017-12-17T23:46:26.162Z,3.00
2017-12-17T23:48:54.486Z,2.80
2017-12-17T23:51:22.081Z,2.80
2017-12-17T23:53:49.666Z,2.70
2017-12-17T23:56:18.233Z,2.50
2017-12-17T23:58:45.805Z,2.50
